Yangliuqing, China
Current Conditions -  °F | °C
As of 8:00 PM on Wednesday 22 Oct 2014 (Local Time) from ZBTJ Reporting Station
Clear Clear  
Wind Chill: 57°   Ceiling: Unl
Heat Index: 57°   Visibility: 5mi
Dew Point: 46°   Wind: 4mph
Humidity: 67%   Direction: 160°SSE
Pressure: 30.12"   Gusts: NA
Location:  39.13°N, 116.99°E
Report Text: ZBTJ 221200Z 16002MPS 8000 NSC 14/08 Q1020 NOSIG
Loading
Personal Weather Stations






























Interactive Weather Map
Tropical Storm Tracking
New forecast layout! Learn more

10-Day Weather Forecast

Advertisements
Track Severe Weather on mobile